createdAt,value
2024-05-09T00:00:06.421Z,95671.00
2024-05-09T00:01:04.641Z,95672.00
2024-05-09T00:02:04.673Z,95669.00
2024-05-09T00:03:04.674Z,95668.00
2024-05-09T00:04:04.822Z,95666.00
2024-05-09T00:05:04.864Z,95667.00
2024-05-09T00:06:04.811Z,95667.00
2024-05-09T00:07:04.775Z,95666.00
2024-05-09T00:08:04.954Z,95667.00
2024-05-09T00:09:04.809Z,95664.00
2024-05-09T00:10:07.089Z,95666.00
2024-05-09T00:11:05.049Z,95663.00
2024-05-09T00:12:05.089Z,95666.00
2024-05-09T00:14:05.055Z,95666.00
2024-05-09T00:15:04.988Z,95665.00
2024-05-09T00:16:05.078Z,95667.00
2024-05-09T00:17:05.124Z,95666.00
2024-05-09T00:18:06.036Z,95666.00
2024-05-09T00:19:05.360Z,95666.00
2024-05-09T00:20:11.136Z,95667.00
2024-05-09T00:21:06.340Z,95665.00
2024-05-09T00:22:05.119Z,95667.00
2024-05-09T00:23:05.150Z,95669.00
2024-05-09T00:24:05.115Z,95670.00
2024-05-09T00:25:05.153Z,95667.00
2024-05-09T00:26:05.317Z,95669.00
2024-05-09T00:27:05.127Z,95667.00
2024-05-09T00:28:05.144Z,95665.00
2024-05-09T00:29:05.209Z,95666.00
2024-05-09T00:30:07.034Z,95667.00
2024-05-09T00:31:05.128Z,95664.00
2024-05-09T00:32:05.545Z,95662.00
2024-05-09T00:33:06.474Z,95662.00
2024-05-09T00:34:05.724Z,95661.00
2024-05-09T00:35:05.336Z,95658.00
2024-05-09T00:36:05.354Z,95658.00
2024-05-09T00:37:05.436Z,95654.00
2024-05-09T00:38:05.580Z,95657.00
2024-05-09T00:39:05.433Z,95656.00
2024-05-09T00:40:07.435Z,95654.00
2024-05-09T00:41:05.531Z,95655.00
2024-05-09T00:42:05.507Z,95653.00
2024-05-09T00:43:05.495Z,95653.00
2024-05-09T00:44:05.528Z,95651.00
2024-05-09T00:45:05.509Z,95651.00
2024-05-09T00:46:05.496Z,95651.00
2024-05-09T00:47:05.710Z,95650.00
2024-05-09T00:48:05.672Z,95649.00
2024-05-09T00:49:05.599Z,95647.00
2024-05-09T00:50:09.939Z,95647.00
2024-05-09T00:51:06.629Z,95644.00
2024-05-09T00:52:05.526Z,95644.00
2024-05-09T00:53:05.572Z,95641.00
2024-05-09T00:54:05.527Z,95639.00
2024-05-09T00:55:05.463Z,95637.00
2024-05-09T00:56:05.567Z,95633.00
2024-05-09T00:57:05.552Z,95633.00
2024-05-09T00:58:05.497Z,95630.00
2024-05-09T00:59:05.544Z,95630.00
2024-05-09T01:00:07.798Z,95627.00
2024-05-09T01:01:05.584Z,95627.00
2024-05-09T01:02:05.605Z,95626.00
2024-05-09T01:03:06.071Z,95624.00
2024-05-09T01:04:05.598Z,95623.00
2024-05-09T01:05:05.577Z,95621.00
2024-05-09T01:06:05.550Z,95618.00
2024-05-09T01:07:05.594Z,95619.00
2024-05-09T01:08:05.596Z,95615.00
2024-05-09T01:09:05.507Z,95617.00
2024-05-09T01:10:09.191Z,95615.00
2024-05-09T01:11:06.551Z,95616.00
2024-05-09T01:12:05.668Z,95615.00
2024-05-09T01:13:06.060Z,95616.00
2024-05-09T01:14:05.581Z,95616.00
2024-05-09T01:15:05.538Z,95616.00
2024-05-09T01:16:05.541Z,95615.00
2024-05-09T01:17:05.586Z,95615.00
2024-05-09T01:18:05.622Z,95614.00
2024-05-09T01:19:05.610Z,95615.00
2024-05-09T01:20:06.424Z,95616.00
2024-05-09T01:21:05.534Z,95616.00
2024-05-09T01:22:05.536Z,95616.00
2024-05-09T01:23:05.571Z,95617.00
2024-05-09T01:24:05.552Z,95618.00
2024-05-09T01:25:05.552Z,95618.00
2024-05-09T01:26:05.568Z,95619.00
2024-05-09T01:27:05.653Z,95619.00
2024-05-09T01:28:05.543Z,95621.00
2024-05-09T01:29:05.613Z,95619.00
2024-05-09T01:30:09.486Z,95620.00
2024-05-09T01:31:06.545Z,95622.00
2024-05-09T01:32:05.700Z,95622.00
2024-05-09T01:33:07.367Z,95623.00
2024-05-09T01:34:05.599Z,95623.00
2024-05-09T01:35:05.609Z,95624.00
2024-05-09T01:36:05.558Z,95622.00
2024-05-09T01:37:06.093Z,95622.00
2024-05-09T01:38:05.856Z,95621.00
2024-05-09T01:39:05.550Z,95623.00
2024-05-09T01:40:09.549Z,95622.00
2024-05-09T01:41:06.597Z,95622.00
2024-05-09T01:42:05.605Z,95621.00
2024-05-09T01:43:05.551Z,95621.00
2024-05-09T01:44:05.609Z,95619.00
2024-05-09T01:45:05.579Z,95618.00
2024-05-09T01:46:05.568Z,95619.00
2024-05-09T01:47:05.656Z,95619.00
2024-05-09T01:48:05.800Z,95618.00
2024-05-09T01:49:05.611Z,95616.00
2024-05-09T01:50:08.974Z,95618.00
2024-05-09T01:51:06.701Z,95619.00
2024-05-09T01:52:05.594Z,95617.00
2024-05-09T01:53:05.668Z,95618.00
2024-05-09T01:54:05.593Z,95621.00
2024-05-09T01:55:06.714Z,95620.00
2024-05-09T01:56:05.610Z,95620.00
2024-05-09T01:57:05.632Z,95621.00
2024-05-09T01:58:05.683Z,95621.00
2024-05-09T01:59:05.689Z,95621.00
2024-05-09T02:00:07.838Z,95618.00
2024-05-09T02:01:05.791Z,95619.00
2024-05-09T02:02:05.745Z,95619.00
2024-05-09T02:03:05.845Z,95619.00
2024-05-09T02:04:06.110Z,95620.00
2024-05-09T02:05:06.007Z,95619.00
2024-05-09T02:06:05.819Z,95619.00
2024-05-09T02:07:05.801Z,95621.00
2024-05-09T02:08:05.811Z,95618.00
2024-05-09T02:09:05.817Z,95619.00
2024-05-09T02:10:13.620Z,95617.00
2024-05-09T02:11:06.950Z,95618.00
2024-05-09T02:12:06.232Z,95619.00
2024-05-09T02:13:05.890Z,95618.00
2024-05-09T02:14:05.923Z,95615.00
2024-05-09T02:15:05.871Z,95614.00
2024-05-09T02:16:05.872Z,95614.00
2024-05-09T02:17:05.884Z,95615.00
2024-05-09T02:18:06.065Z,95614.00
2024-05-09T02:19:06.022Z,95614.00
2024-05-09T02:20:06.200Z,95615.00
2024-05-09T02:21:05.952Z,95617.00
2024-05-09T02:22:05.963Z,95618.00
2024-05-09T02:23:06.342Z,95615.00
2024-05-09T02:24:05.900Z,95618.00
2024-05-09T02:25:05.882Z,95617.00
2024-05-09T02:26:05.908Z,95614.00
2024-05-09T02:27:05.938Z,95615.00
2024-05-09T02:28:05.875Z,95614.00
2024-05-09T02:29:05.921Z,95613.00
2024-05-09T02:30:12.292Z,95613.00
2024-05-09T02:31:06.887Z,95612.00
2024-05-09T02:32:05.969Z,95612.00
2024-05-09T02:33:06.129Z,95609.00
2024-05-09T02:34:06.052Z,95610.00
2024-05-09T02:35:05.956Z,95609.00
2024-05-09T02:36:05.902Z,95607.00
2024-05-09T02:37:05.953Z,95607.00
2024-05-09T02:38:06.002Z,95607.00
2024-05-09T02:39:05.927Z,95606.00
2024-05-09T02:40:09.162Z,95608.00
2024-05-09T02:41:07.171Z,95607.00
2024-05-09T02:42:05.911Z,95608.00
2024-05-09T02:43:06.189Z,95610.00
2024-05-09T02:44:05.938Z,95606.00
2024-05-09T02:45:05.913Z,95607.00
2024-05-09T02:46:05.916Z,95608.00
2024-05-09T02:47:06.069Z,95605.00
2024-05-09T02:48:06.201Z,95606.00
2024-05-09T02:49:06.169Z,95607.00
2024-05-09T02:50:07.873Z,95605.00
2024-05-09T02:51:06.073Z,95606.00
2024-05-09T02:52:05.911Z,95607.00
2024-05-09T02:53:06.260Z,95607.00
2024-05-09T02:54:05.920Z,95608.00
2024-05-09T02:55:05.934Z,95608.00
2024-05-09T02:56:05.992Z,95608.00
2024-05-09T02:57:06.078Z,95607.00
2024-05-09T02:58:06.135Z,95610.00
2024-05-09T02:59:06.001Z,95608.00
2024-05-09T03:00:07.630Z,95608.00
2024-05-09T03:01:06.140Z,95607.00
2024-05-09T03:02:06.153Z,95606.00
2024-05-09T03:03:06.476Z,95606.00
2024-05-09T03:04:06.282Z,95606.00
2024-05-09T03:05:06.177Z,95608.00
2024-05-09T03:06:06.166Z,95606.00
2024-05-09T03:07:06.416Z,95605.00
2024-05-09T03:08:06.333Z,95607.00
2024-05-09T03:09:06.280Z,95604.00
2024-05-09T03:10:12.178Z,95603.00
2024-05-09T03:11:07.431Z,95604.00
2024-05-09T03:12:06.440Z,95602.00
2024-05-09T03:13:06.339Z,95603.00
2024-05-09T03:14:06.390Z,95601.00
2024-05-09T03:15:06.322Z,95603.00
2024-05-09T03:16:06.348Z,95602.00
2024-05-09T03:17:06.380Z,95603.00
2024-05-09T03:18:06.963Z,95604.00
2024-05-09T03:19:06.500Z,95606.00
2024-05-09T03:20:11.648Z,95606.00
2024-05-09T03:21:07.465Z,95607.00
2024-05-09T03:22:06.375Z,95606.00
2024-05-09T03:23:06.627Z,95609.00
2024-05-09T03:24:06.344Z,95609.00
2024-05-09T03:25:06.399Z,95609.00
2024-05-09T03:26:06.442Z,95609.00
2024-05-09T03:27:06.450Z,95609.00
2024-05-09T03:28:06.427Z,95610.00
2024-05-09T03:29:06.389Z,95608.00
2024-05-09T03:30:07.642Z,95608.00
2024-05-09T03:31:06.331Z,95610.00
2024-05-09T03:32:06.571Z,95610.00
2024-05-09T03:33:06.488Z,95609.00
2024-05-09T03:34:06.433Z,95610.00
2024-05-09T03:35:06.467Z,95607.00
2024-05-09T03:36:08.952Z,95607.00
2024-05-09T03:37:06.389Z,95607.00
2024-05-09T03:38:06.432Z,95607.00
2024-05-09T03:39:06.356Z,95610.00
2024-05-09T03:40:09.344Z,95611.00
2024-05-09T03:41:07.393Z,95610.00
2024-05-09T03:42:06.410Z,95610.00
2024-05-09T03:43:06.380Z,95612.00
2024-05-09T03:44:06.437Z,95611.00
2024-05-09T03:45:06.523Z,95611.00
2024-05-09T03:46:06.382Z,95610.00
2024-05-09T03:47:06.554Z,95608.00
2024-05-09T03:48:06.457Z,95610.00
2024-05-09T03:49:06.479Z,95607.00
2024-05-09T03:50:14.951Z,95609.00
2024-05-09T03:51:07.586Z,95609.00
2024-05-09T03:52:06.405Z,95609.00
2024-05-09T03:53:06.617Z,95613.00
2024-05-09T03:54:07.057Z,95613.00
2024-05-09T03:55:06.400Z,95617.00
2024-05-09T03:56:06.442Z,95616.00
2024-05-09T03:57:06.400Z,95618.00
2024-05-09T03:58:06.414Z,95622.00
2024-05-09T03:59:06.472Z,95622.00
2024-05-09T04:00:12.261Z,95623.00
2024-05-09T04:01:07.441Z,95624.00
2024-05-09T04:02:06.621Z,95623.00
2024-05-09T04:03:08.892Z,95624.00
2024-05-09T04:04:06.474Z,95624.00
2024-05-09T04:05:06.465Z,95626.00
2024-05-09T04:06:06.433Z,95626.00
2024-05-09T04:07:06.469Z,95630.00
2024-05-09T04:08:06.493Z,95630.00
2024-05-09T04:09:06.439Z,95631.00
2024-05-09T04:10:09.008Z,95632.00
2024-05-09T04:11:06.540Z,95632.00
2024-05-09T04:12:06.584Z,95635.00
2024-05-09T04:13:06.441Z,95633.00
2024-05-09T04:14:06.495Z,95637.00
2024-05-09T04:15:08.823Z,95632.00
2024-05-09T04:16:06.438Z,95632.00
2024-05-09T04:17:06.583Z,95633.00
2024-05-09T04:18:06.922Z,95632.00
2024-05-09T04:19:06.581Z,95634.00
2024-05-09T04:20:08.381Z,95633.00
2024-05-09T04:21:06.623Z,95633.00
2024-05-09T04:22:06.464Z,95635.00
2024-05-09T04:23:07.168Z,95632.00
2024-05-09T04:24:06.424Z,95635.00
2024-05-09T04:25:06.451Z,95635.00
2024-05-09T04:26:06.462Z,95635.00
2024-05-09T04:27:06.505Z,95637.00
2024-05-09T04:28:06.481Z,95637.00
2024-05-09T04:29:06.504Z,95639.00
2024-05-09T04:30:10.056Z,95640.00
2024-05-09T04:31:07.524Z,95641.00
2024-05-09T04:32:06.601Z,95641.00
2024-05-09T04:33:07.854Z,95644.00
2024-05-09T04:34:06.744Z,95643.00
2024-05-09T04:35:06.596Z,95644.00
2024-05-09T04:36:06.524Z,95643.00
2024-05-09T04:37:06.534Z,95643.00
2024-05-09T04:38:06.838Z,95640.00
2024-05-09T04:39:06.532Z,95641.00
2024-05-09T04:40:08.983Z,95641.00
2024-05-09T04:41:06.599Z,95641.00
2024-05-09T04:42:13.885Z,95642.00
2024-05-09T04:43:13.895Z,95641.00
2024-05-09T04:44:13.892Z,95640.00
2024-05-09T04:45:13.862Z,95641.00
2024-05-09T04:46:13.873Z,95643.00
2024-05-09T04:47:14.077Z,95642.00
2024-05-09T04:48:14.110Z,95643.00
2024-05-09T04:49:13.947Z,95642.00
2024-05-09T04:50:21.167Z,95645.00
2024-05-09T04:51:14.930Z,95647.00
2024-05-09T04:52:13.934Z,95647.00
2024-05-09T04:53:13.924Z,95650.00
2024-05-09T04:54:25.982Z,95649.00
2024-05-09T04:55:14.895Z,95652.00
2024-05-09T04:56:13.927Z,95651.00
2024-05-09T04:57:13.883Z,95654.00
2024-05-09T04:58:13.885Z,95655.00
2024-05-09T04:59:13.957Z,95653.00
2024-05-09T05:00:15.032Z,95654.00
2024-05-09T05:01:14.975Z,95655.00
2024-05-09T05:02:14.035Z,95655.00
2024-05-09T05:03:15.816Z,95655.00
2024-05-09T05:04:13.993Z,95656.00
2024-05-09T05:05:14.028Z,95655.00
2024-05-09T05:06:13.909Z,95656.00
2024-05-09T05:07:13.908Z,95654.00
2024-05-09T05:08:14.342Z,95653.00
2024-05-09T05:09:13.926Z,95655.00
2024-05-09T05:10:21.406Z,95653.00
2024-05-09T05:11:15.079Z,95653.00
2024-05-09T05:12:14.043Z,95653.00
2024-05-09T05:13:13.935Z,95653.00
2024-05-09T05:14:13.959Z,95654.00
2024-05-09T05:15:13.925Z,95655.00
2024-05-09T05:16:13.941Z,95655.00
2024-05-09T05:17:13.965Z,95657.00
2024-05-09T05:18:13.983Z,95659.00
2024-05-09T05:19:17.464Z,95659.00
2024-05-09T05:20:17.922Z,95659.00
2024-05-09T05:21:14.998Z,95658.00
2024-05-09T05:22:13.930Z,95659.00
2024-05-09T05:23:14.320Z,95658.00
2024-05-09T05:24:13.951Z,95657.00
2024-05-09T05:25:13.961Z,95658.00
2024-05-09T05:26:14.006Z,95658.00
2024-05-09T05:27:13.966Z,95659.00
2024-05-09T05:28:13.945Z,95657.00
2024-05-09T05:29:14.414Z,95657.00
2024-05-09T05:30:21.143Z,95660.00
2024-05-09T05:31:15.028Z,95659.00
2024-05-09T05:32:14.180Z,95659.00
2024-05-09T05:33:14.279Z,95661.00
2024-05-09T05:34:14.029Z,95661.00
2024-05-09T05:35:14.017Z,95664.00
2024-05-09T05:36:14.000Z,95664.00
2024-05-09T05:37:13.988Z,95664.00
2024-05-09T05:38:14.075Z,95664.00
2024-05-09T05:39:13.978Z,95665.00
2024-05-09T05:40:24.636Z,95666.00
2024-05-09T05:41:15.038Z,95665.00
2024-05-09T05:42:13.977Z,95665.00
2024-05-09T05:43:14.018Z,95668.00
2024-05-09T05:44:14.005Z,95669.00
2024-05-09T05:45:13.985Z,95669.00
2024-05-09T05:46:14.014Z,95667.00
2024-05-09T05:47:14.078Z,95665.00
2024-05-09T05:48:14.304Z,95667.00
2024-05-09T05:49:14.280Z,95668.00
2024-05-09T05:50:23.802Z,95667.00
2024-05-09T05:51:15.170Z,95668.00
2024-05-09T05:52:14.036Z,95669.00
2024-05-09T05:53:14.087Z,95668.00
2024-05-09T05:54:13.996Z,95667.00
2024-05-09T05:55:14.026Z,95666.00
2024-05-09T05:56:14.066Z,95666.00
2024-05-09T05:57:14.010Z,95668.00
2024-05-09T05:58:14.012Z,95667.00
2024-05-09T05:59:15.519Z,95666.00
2024-05-09T06:00:21.580Z,95667.00
2024-05-09T06:01:15.030Z,95666.00
2024-05-09T06:02:14.148Z,95665.00
2024-05-09T06:03:14.547Z,95663.00
2024-05-09T06:04:14.098Z,95662.00
2024-05-09T06:05:14.131Z,95663.00
2024-05-09T06:06:14.082Z,95662.00
2024-05-09T06:07:14.031Z,95661.00
2024-05-09T06:08:14.191Z,95662.00
2024-05-09T06:09:14.047Z,95660.00
2024-05-09T06:10:21.031Z,95660.00
2024-05-09T06:11:15.145Z,95662.00
2024-05-09T06:12:14.145Z,95659.00
2024-05-09T06:13:14.587Z,95661.00
2024-05-09T06:14:14.111Z,95659.00
2024-05-09T06:15:14.089Z,95659.00
2024-05-09T06:16:14.025Z,95660.00
2024-05-09T06:17:14.119Z,95660.00
2024-05-09T06:18:14.878Z,95660.00
2024-05-09T06:19:14.226Z,95660.00
2024-05-09T06:20:20.596Z,95660.00
2024-05-09T06:21:15.199Z,95659.00
2024-05-09T06:22:14.047Z,95659.00
2024-05-09T06:23:14.381Z,95657.00
2024-05-09T06:24:14.087Z,95657.00
2024-05-09T06:25:14.059Z,95657.00
2024-05-09T06:26:14.119Z,95657.00
2024-05-09T06:27:14.068Z,95657.00
2024-05-09T06:28:14.067Z,95656.00
2024-05-09T06:29:14.134Z,95656.00
2024-05-09T06:30:24.936Z,95656.00
2024-05-09T06:31:15.123Z,95654.00
2024-05-09T06:32:14.233Z,95655.00
2024-05-09T06:33:16.169Z,95654.00
2024-05-09T06:34:14.224Z,95653.00
2024-05-09T06:35:14.140Z,95655.00
2024-05-09T06:36:14.082Z,95654.00
2024-05-09T06:37:14.074Z,95654.00
2024-05-09T06:38:14.191Z,95653.00
2024-05-09T06:39:14.095Z,95652.00
2024-05-09T06:40:17.480Z,95649.00
2024-05-09T06:41:14.126Z,95648.00
2024-05-09T06:42:14.065Z,95649.00
2024-05-09T06:43:14.730Z,95648.00
2024-05-09T06:44:14.169Z,95649.00
2024-05-09T06:45:14.093Z,95648.00
2024-05-09T06:46:14.101Z,95647.00
2024-05-09T06:47:14.271Z,95649.00
2024-05-09T06:48:14.454Z,95651.00
2024-05-09T06:49:14.356Z,95651.00
2024-05-09T06:50:23.242Z,95651.00
2024-05-09T06:51:15.204Z,95653.00
2024-05-09T06:52:14.198Z,95655.00
2024-05-09T06:53:14.875Z,95653.00
2024-05-09T06:54:14.131Z,95654.00
2024-05-09T06:55:14.213Z,95656.00
2024-05-09T06:56:14.248Z,95656.00
2024-05-09T06:57:14.212Z,95655.00
2024-05-09T06:58:14.237Z,95653.00
2024-05-09T06:59:14.339Z,95653.00
2024-05-09T07:00:22.704Z,95651.00
2024-05-09T07:01:15.225Z,95646.00
2024-05-09T07:02:14.345Z,95649.00
2024-05-09T07:03:16.843Z,95647.00
2024-05-09T07:04:14.485Z,95647.00
2024-05-09T07:05:14.175Z,95648.00
2024-05-09T07:06:14.179Z,95648.00
2024-05-09T07:07:14.129Z,95653.00
2024-05-09T07:08:14.727Z,95652.00
2024-05-09T07:09:14.159Z,95653.00
2024-05-09T07:10:21.712Z,95654.00
2024-05-09T07:11:15.188Z,95656.00
2024-05-09T07:12:14.304Z,95654.00
2024-05-09T07:13:14.459Z,95654.00
2024-05-09T07:14:14.224Z,95652.00
2024-05-09T07:15:14.152Z,95652.00
2024-05-09T07:16:14.154Z,95650.00
2024-05-09T07:17:14.218Z,95651.00
2024-05-09T07:18:14.350Z,95650.00
2024-05-09T07:19:14.444Z,95651.00
2024-05-09T07:20:23.114Z,95651.00
2024-05-09T07:21:15.409Z,95647.00
2024-05-09T07:22:14.168Z,95645.00
2024-05-09T07:23:14.202Z,95640.00
2024-05-09T07:24:14.207Z,95640.00
2024-05-09T07:25:14.162Z,95637.00
2024-05-09T07:26:14.255Z,95635.00
2024-05-09T07:27:14.168Z,95637.00
2024-05-09T07:28:14.191Z,95634.00
2024-05-09T07:29:14.238Z,95635.00
2024-05-09T07:30:20.356Z,95636.00
2024-05-09T07:31:15.184Z,95635.00
2024-05-09T07:32:14.321Z,95632.00
2024-05-09T07:33:14.250Z,95632.00
2024-05-09T07:34:14.400Z,95634.00
2024-05-09T07:35:15.189Z,95634.00
2024-05-09T07:36:14.196Z,95635.00
2024-05-09T07:37:15.197Z,95638.00
2024-05-09T07:38:14.262Z,95637.00
2024-05-09T07:39:14.208Z,95637.00
2024-05-09T07:40:24.119Z,95637.00
2024-05-09T07:41:15.231Z,95638.00
2024-05-09T07:42:14.209Z,95639.00
2024-05-09T07:43:14.569Z,95636.00
2024-05-09T07:44:14.244Z,95635.00
2024-05-09T07:45:29.920Z,95630.00
2024-05-09T07:48:28.375Z,95631.00
2024-05-09T07:49:45.330Z,95633.00
2024-05-09T07:53:29.749Z,95626.00
2024-05-09T07:53:37.806Z,95625.00
2024-05-09T07:54:15.369Z,95624.00
2024-05-09T07:55:14.358Z,95624.00
2024-05-09T07:56:14.486Z,95625.00
2024-05-09T07:57:14.298Z,95625.00
2024-05-09T07:58:14.245Z,95625.00
2024-05-09T07:59:14.230Z,95621.00
2024-05-09T08:00:17.360Z,95624.00
2024-05-09T08:01:15.371Z,95624.00
2024-05-09T08:02:14.414Z,95624.00
2024-05-09T08:03:15.286Z,95624.00
2024-05-09T08:04:14.339Z,95625.00
2024-05-09T08:05:14.419Z,95621.00
2024-05-09T08:06:14.373Z,95621.00
2024-05-09T08:07:14.284Z,95623.00
2024-05-09T08:08:14.250Z,95622.00
2024-05-09T08:09:20.771Z,95622.00
2024-05-09T08:10:19.154Z,95621.00
2024-05-09T08:11:15.345Z,95618.00
2024-05-09T08:12:14.288Z,95620.00
2024-05-09T08:13:14.405Z,95620.00
2024-05-09T08:14:14.248Z,95619.00
2024-05-09T08:15:14.265Z,95618.00
2024-05-09T08:16:14.480Z,95617.00
2024-05-09T08:17:14.324Z,95617.00
2024-05-09T08:18:14.416Z,95616.00
2024-05-09T08:19:14.336Z,95616.00
2024-05-09T08:20:22.857Z,95617.00
2024-05-09T08:21:15.295Z,95618.00
2024-05-09T08:22:14.271Z,95618.00
2024-05-09T08:23:14.296Z,95615.00
2024-05-09T08:24:14.288Z,95613.00
2024-05-09T08:25:14.603Z,95613.00
2024-05-09T08:26:14.286Z,95612.00
2024-05-09T08:27:14.290Z,95612.00
2024-05-09T08:28:14.462Z,95610.00
2024-05-09T08:29:14.279Z,95610.00
2024-05-09T08:30:21.945Z,95608.00
2024-05-09T08:31:15.660Z,95606.00
2024-05-09T08:32:14.340Z,95609.00
2024-05-09T08:33:14.421Z,95609.00
2024-05-09T08:34:14.379Z,95608.00
2024-05-09T08:35:14.310Z,95606.00
2024-05-09T08:36:14.305Z,95608.00
2024-05-09T08:38:14.344Z,95609.00
2024-05-09T08:39:14.329Z,95609.00
2024-05-09T08:40:23.664Z,95608.00
2024-05-09T08:41:15.359Z,95610.00
2024-05-09T08:42:14.288Z,95608.00
2024-05-09T08:43:14.484Z,95608.00
2024-05-09T08:44:14.309Z,95607.00
2024-05-09T08:45:14.305Z,95606.00
2024-05-09T08:46:14.417Z,95605.00
2024-05-09T08:47:14.326Z,95604.00
2024-05-09T08:48:15.820Z,95604.00
2024-05-09T08:49:14.414Z,95603.00
2024-05-09T08:50:28.468Z,95603.00
2024-05-09T08:51:15.426Z,95604.00
2024-05-09T08:52:14.443Z,95603.00
2024-05-09T08:53:14.356Z,95602.00
2024-05-09T08:54:14.355Z,95600.00
2024-05-09T08:55:14.472Z,95601.00
2024-05-09T08:56:14.346Z,95602.00
2024-05-09T08:57:14.328Z,95602.00
2024-05-09T08:58:14.498Z,95599.00
2024-05-09T08:59:14.326Z,95602.00
2024-05-09T09:00:21.405Z,95600.00
2024-05-09T09:01:15.435Z,95600.00
2024-05-09T09:02:14.591Z,95600.00
2024-05-09T09:03:14.372Z,95600.00
2024-05-09T09:04:14.475Z,95597.00
2024-05-09T09:05:14.563Z,95598.00
2024-05-09T09:06:14.397Z,95597.00
2024-05-09T09:07:14.451Z,95596.00
2024-05-09T09:08:14.351Z,95595.00
2024-05-09T09:09:14.369Z,95592.00
2024-05-09T09:10:21.194Z,95595.00
2024-05-09T09:11:15.445Z,95591.00
2024-05-09T09:12:14.370Z,95592.00
2024-05-09T09:13:14.580Z,95587.00
2024-05-09T09:14:14.337Z,95593.00
2024-05-09T09:15:14.353Z,95588.00
2024-05-09T09:16:14.387Z,95588.00
2024-05-09T09:17:14.384Z,95588.00
2024-05-09T09:18:14.484Z,95586.00
2024-05-09T09:19:14.498Z,95585.00
2024-05-09T09:20:19.364Z,95583.00
2024-05-09T09:21:15.557Z,95580.00
2024-05-09T09:22:14.390Z,95583.00
2024-05-09T09:23:14.389Z,95581.00
2024-05-09T09:24:14.390Z,95581.00
2024-05-09T09:25:14.447Z,95582.00
2024-05-09T09:26:14.379Z,95580.00
2024-05-09T09:27:14.405Z,95580.00
2024-05-09T09:28:14.523Z,95577.00
2024-05-09T09:29:14.390Z,95578.00
2024-05-09T09:30:27.721Z,95577.00
2024-05-09T09:31:15.529Z,95574.00
2024-05-09T09:32:14.391Z,95574.00
2024-05-09T09:33:14.564Z,95576.00
2024-05-09T09:34:14.606Z,95577.00
2024-05-09T09:35:14.375Z,95575.00
2024-05-09T09:36:14.450Z,95574.00
2024-05-09T09:37:14.418Z,95572.00
2024-05-09T09:38:14.441Z,95573.00
2024-05-09T09:39:14.456Z,95571.00
2024-05-09T09:40:18.004Z,95568.00
2024-05-09T09:41:14.487Z,95568.00
2024-05-09T09:42:14.398Z,95570.00
2024-05-09T09:43:14.866Z,95564.00
2024-05-09T09:44:14.411Z,95564.00
2024-05-09T09:45:14.459Z,95561.00
2024-05-09T09:46:14.504Z,95559.00
2024-05-09T09:47:14.491Z,95557.00
2024-05-09T09:48:14.564Z,95557.00
2024-05-09T09:49:14.676Z,95556.00
2024-05-09T09:50:17.149Z,95553.00
2024-05-09T09:51:15.456Z,95553.00
2024-05-09T09:52:14.519Z,95550.00
2024-05-09T09:53:14.451Z,95550.00
2024-05-09T09:54:14.443Z,95551.00
2024-05-09T09:55:14.676Z,95549.00
2024-05-09T09:56:14.440Z,95549.00
2024-05-09T09:57:14.446Z,95549.00
2024-05-09T09:58:14.866Z,95552.00
2024-05-09T09:59:14.449Z,95548.00
2024-05-09T10:00:20.745Z,95548.00
2024-05-09T10:01:15.616Z,95544.00
2024-05-09T10:02:14.655Z,95544.00
2024-05-09T10:03:14.511Z,95544.00
2024-05-09T10:04:14.542Z,95545.00
2024-05-09T10:05:14.524Z,95541.00
2024-05-09T10:06:14.486Z,95538.00
2024-05-09T10:07:14.646Z,95536.00
2024-05-09T10:08:14.486Z,95536.00
2024-05-09T10:09:14.484Z,95531.00
2024-05-09T10:10:19.866Z,95531.00
2024-05-09T10:11:15.497Z,95529.00
2024-05-09T10:13:14.618Z,95523.00
2024-05-09T10:14:14.501Z,95524.00
2024-05-09T10:15:14.444Z,95522.00
2024-05-09T10:16:14.544Z,95521.00
2024-05-09T10:17:14.484Z,95519.00
2024-05-09T10:18:14.968Z,95518.00
2024-05-09T10:19:14.565Z,95514.00
2024-05-09T10:20:21.461Z,95511.00
2024-05-09T10:21:15.573Z,95511.00
2024-05-09T10:22:14.643Z,95510.00
2024-05-09T10:23:14.476Z,95509.00
2024-05-09T10:24:14.460Z,95509.00
2024-05-09T10:25:14.579Z,95509.00
2024-05-09T10:26:14.477Z,95509.00
2024-05-09T10:27:14.464Z,95507.00
2024-05-09T10:28:14.626Z,95508.00
2024-05-09T10:29:14.485Z,95508.00
2024-05-09T10:30:21.289Z,95503.00
2024-05-09T10:31:15.875Z,95503.00
2024-05-09T10:32:14.512Z,95503.00
2024-05-09T10:33:14.693Z,95503.00
2024-05-09T10:34:14.655Z,95501.00
2024-05-09T10:35:14.541Z,95500.00
2024-05-09T10:36:14.504Z,95498.00
2024-05-09T10:37:14.525Z,95500.00
2024-05-09T10:38:14.669Z,95501.00
2024-05-09T10:39:14.479Z,95502.00
2024-05-09T10:40:23.287Z,95502.00
2024-05-09T10:41:15.525Z,95499.00
2024-05-09T10:42:14.488Z,95496.00
2024-05-09T10:43:14.612Z,95494.00
2024-05-09T10:44:14.503Z,95492.00
2024-05-09T10:45:14.529Z,95493.00
2024-05-09T10:46:14.766Z,95496.00
2024-05-09T10:47:14.550Z,95489.00
2024-05-09T10:48:14.589Z,95489.00
2024-05-09T10:49:14.690Z,95488.00
2024-05-09T10:50:22.290Z,95484.00
2024-05-09T10:51:15.583Z,95484.00
2024-05-09T10:52:14.599Z,95480.00
2024-05-09T10:53:14.576Z,95481.00
2024-05-09T10:54:14.599Z,95482.00
2024-05-09T10:55:14.629Z,95479.00
2024-05-09T10:56:14.734Z,95477.00
2024-05-09T10:57:14.546Z,95476.00
2024-05-09T10:58:14.649Z,95473.00
2024-05-09T10:59:14.565Z,95473.00
2024-05-09T11:00:23.274Z,95472.00
2024-05-09T11:01:15.659Z,95471.00
2024-05-09T11:02:14.768Z,95467.00
2024-05-09T11:03:14.691Z,95468.00
2024-05-09T11:04:14.905Z,95471.00
2024-05-09T11:05:14.621Z,95468.00
2024-05-09T11:06:14.559Z,95468.00
2024-05-09T11:07:14.698Z,95464.00
2024-05-09T11:08:14.670Z,95461.00
2024-05-09T11:09:14.535Z,95459.00
2024-05-09T11:10:17.941Z,95455.00
2024-05-09T11:11:15.612Z,95457.00
2024-05-09T11:12:14.587Z,95458.00
2024-05-09T11:13:14.743Z,95455.00
2024-05-09T11:14:14.564Z,95452.00
2024-05-09T11:15:14.568Z,95450.00
2024-05-09T11:16:14.589Z,95452.00
2024-05-09T11:17:14.614Z,95451.00
2024-05-09T11:18:14.629Z,95453.00
2024-05-09T11:19:15.038Z,95453.00
2024-05-09T11:20:22.636Z,95451.00
2024-05-09T11:21:15.595Z,95452.00
2024-05-09T11:22:14.639Z,95451.00
2024-05-09T11:23:14.567Z,95445.00
2024-05-09T11:24:14.577Z,95444.00
2024-05-09T11:25:14.680Z,95442.00
2024-05-09T11:26:14.578Z,95442.00
2024-05-09T11:27:14.594Z,95440.00
2024-05-09T11:28:14.803Z,95439.00
2024-05-09T11:29:17.924Z,95438.00
2024-05-09T11:30:23.768Z,95437.00
2024-05-09T11:31:15.615Z,95438.00
2024-05-09T11:32:14.697Z,95434.00
2024-05-09T11:33:14.729Z,95436.00
2024-05-09T11:34:15.240Z,95438.00
2024-05-09T11:35:14.602Z,95435.00
2024-05-09T11:36:14.606Z,95432.00
2024-05-09T11:37:14.781Z,95431.00
2024-05-09T11:38:14.628Z,95432.00
2024-05-09T11:39:14.780Z,95430.00
2024-05-09T11:40:21.441Z,95428.00
2024-05-09T11:41:15.620Z,95428.00
2024-05-09T11:42:14.711Z,95426.00
2024-05-09T11:43:14.817Z,95425.00
2024-05-09T11:44:14.629Z,95422.00
2024-05-09T11:45:14.619Z,95423.00
2024-05-09T11:46:14.938Z,95418.00
2024-05-09T11:47:14.698Z,95420.00
2024-05-09T11:48:14.803Z,95419.00
2024-05-09T11:49:14.747Z,95418.00
2024-05-09T11:50:22.533Z,95415.00
2024-05-09T11:51:15.641Z,95414.00